createdAt,value
2023-01-11T00:01:53.748Z,9.18
2023-01-11T00:04:20.719Z,9.20
2023-01-11T00:06:49.397Z,9.20
2023-01-11T00:09:17.433Z,9.25
2023-01-11T00:11:44.248Z,9.27
2023-01-11T00:14:11.119Z,9.29
2023-01-11T00:16:38.280Z,9.32
2023-01-11T00:19:05.295Z,9.34
2023-01-11T00:21:32.844Z,9.37
2023-01-11T00:24:05.905Z,9.38
2023-01-11T00:26:32.475Z,9.41
2023-01-11T00:28:59.667Z,9.46
2023-01-11T00:31:26.257Z,9.46
2023-01-11T00:33:57.527Z,9.49
2023-01-11T00:36:24.921Z,9.52
2023-01-11T00:38:54.672Z,9.51
2023-01-11T00:41:43.067Z,9.55
2023-01-11T00:44:29.505Z,9.57
2023-01-11T00:47:15.395Z,9.59
2023-01-11T00:49:43.078Z,9.59
2023-01-11T00:52:10.216Z,9.61
2023-01-11T00:54:41.579Z,9.61
2023-01-11T00:57:08.876Z,9.62
2023-01-11T00:59:39.230Z,9.65
2023-01-11T01:02:06.914Z,9.64
2023-01-11T01:04:33.632Z,9.68
2023-01-11T01:07:06.016Z,9.69
2023-01-11T01:09:35.930Z,9.70
2023-01-11T01:12:02.586Z,9.72
2023-01-11T01:14:33.609Z,9.72
2023-01-11T01:17:07.675Z,9.73
2023-01-11T01:19:38.546Z,9.75
2023-01-11T01:22:06.726Z,9.78
2023-01-11T01:24:34.032Z,9.80
2023-01-11T01:27:00.612Z,9.80
2023-01-11T01:29:29.085Z,9.82
2023-01-11T01:31:56.822Z,9.84
2023-01-11T01:34:24.327Z,9.86
2023-01-11T01:36:53.228Z,9.88
2023-01-11T01:39:20.074Z,9.90
2023-01-11T01:41:46.611Z,9.96
2023-01-11T01:44:50.994Z,9.96
2023-01-11T01:47:19.673Z,10.01
2023-01-11T01:49:46.349Z,10.02
2023-01-11T01:52:13.215Z,10.05
2023-01-11T01:54:45.641Z,10.09
2023-01-11T01:57:25.367Z,10.12
2023-01-11T01:59:58.150Z,10.12
2023-01-11T02:02:26.298Z,10.11
2023-01-11T02:04:56.532Z,10.12
2023-01-11T02:07:29.417Z,10.14
2023-01-11T02:10:03.778Z,10.17
2023-01-11T02:12:55.706Z,10.23
2023-01-11T02:15:23.938Z,10.23
2023-01-11T02:17:51.588Z,10.26
2023-01-11T02:20:21.236Z,10.27
2023-01-11T02:23:17.496Z,10.27
2023-01-11T02:26:17.144Z,10.30
2023-01-11T02:29:04.840Z,10.31
2023-01-11T02:31:51.709Z,10.32
2023-01-11T02:34:37.926Z,10.35
2023-01-11T02:37:21.234Z,10.36
2023-01-11T02:40:13.711Z,10.38
2023-01-11T02:43:25.185Z,10.38
2023-01-11T02:46:16.625Z,10.38
2023-01-11T02:48:56.425Z,10.41
2023-01-11T02:51:32.475Z,10.41
2023-01-11T02:54:05.027Z,10.43
2023-01-11T02:56:37.119Z,10.45
2023-01-11T02:59:05.414Z,10.45
2023-01-11T03:01:32.881Z,10.47
2023-01-11T03:03:59.760Z,10.48
2023-01-11T03:06:34.205Z,10.50
2023-01-11T03:09:01.449Z,10.49
2023-01-11T03:12:05.510Z,10.49
2023-01-11T03:14:49.329Z,10.52
2023-01-11T03:17:36.366Z,10.58
2023-01-11T03:20:13.937Z,10.57
2023-01-11T03:23:11.878Z,10.58
2023-01-11T03:25:57.221Z,10.59
2023-01-11T03:29:05.543Z,10.61
2023-01-11T03:31:40.844Z,10.64
2023-01-11T03:34:23.244Z,10.67
2023-01-11T03:36:56.795Z,10.67
2023-01-11T03:39:44.852Z,10.69
2023-01-11T03:42:15.834Z,10.68
2023-01-11T03:44:50.338Z,10.68
2023-01-11T03:47:21.414Z,10.69
2023-01-11T03:49:55.972Z,10.67
2023-01-11T03:52:28.651Z,10.67
2023-01-11T03:54:56.652Z,10.67
2023-01-11T03:57:31.360Z,10.65
2023-01-11T04:00:00.033Z,10.65
2023-01-11T04:02:29.071Z,10.66
2023-01-11T04:04:56.712Z,10.66
2023-01-11T04:07:28.762Z,10.65
2023-01-11T04:09:55.517Z,10.65
2023-01-11T04:12:23.254Z,10.66
2023-01-11T04:14:53.183Z,10.66
2023-01-11T04:17:21.024Z,10.65
2023-01-11T04:19:48.953Z,10.65
2023-01-11T04:22:17.707Z,10.66
2023-01-11T04:24:44.386Z,10.67
2023-01-11T04:27:13.638Z,10.66
2023-01-11T04:29:42.870Z,10.67
2023-01-11T04:32:11.076Z,10.68
2023-01-11T04:34:42.410Z,10.68
2023-01-11T04:37:12.565Z,10.67
2023-01-11T04:39:39.263Z,10.67
2023-01-11T04:42:21.395Z,10.68
2023-01-11T04:44:52.698Z,10.68
2023-01-11T04:47:25.246Z,10.69
2023-01-11T04:49:52.462Z,10.69
2023-01-11T04:52:20.489Z,10.68
2023-01-11T04:54:48.988Z,10.68
2023-01-11T04:57:17.062Z,10.65
2023-01-11T04:59:47.101Z,10.64
2023-01-11T05:02:14.535Z,10.64
2023-01-11T05:04:41.578Z,10.63
2023-01-11T05:07:09.235Z,10.64
2023-01-11T05:09:37.208Z,10.63
2023-01-11T05:12:04.526Z,10.62
2023-01-11T05:14:31.211Z,10.63
2023-01-11T05:16:59.962Z,10.61
2023-01-11T05:19:29.593Z,10.60
2023-01-11T05:21:56.926Z,10.62
2023-01-11T05:24:23.799Z,10.60
2023-01-11T05:26:52.709Z,10.57
2023-01-11T05:29:21.401Z,10.56
2023-01-11T05:31:48.499Z,10.53
2023-01-11T05:34:16.173Z,10.53
2023-01-11T05:36:43.523Z,10.52
2023-01-11T05:39:18.683Z,10.48
2023-01-11T05:41:45.550Z,10.47
2023-01-11T05:44:32.511Z,10.45
2023-01-11T05:47:00.602Z,10.42
2023-01-11T05:49:29.956Z,10.38
2023-01-11T05:51:59.679Z,10.37
2023-01-11T05:54:26.313Z,10.35
2023-01-11T05:56:56.219Z,10.33
2023-01-11T05:59:23.167Z,10.31
2023-01-11T06:01:50.947Z,10.30
2023-01-11T06:04:20.417Z,10.28
2023-01-11T06:06:51.223Z,10.26
2023-01-11T06:09:22.380Z,10.22
2023-01-11T06:11:50.652Z,10.20
2023-01-11T06:14:18.418Z,10.18
2023-01-11T06:16:48.132Z,10.15
2023-01-11T06:19:23.956Z,10.13
2023-01-11T06:21:51.497Z,10.12
2023-01-11T06:24:19.127Z,10.11
2023-01-11T06:26:47.399Z,10.08
2023-01-11T06:29:18.416Z,10.05
2023-01-11T06:31:44.971Z,10.04
2023-01-11T06:34:12.435Z,10.02
2023-01-11T06:36:39.573Z,9.99
2023-01-11T06:39:06.396Z,9.96
2023-01-11T06:41:35.483Z,9.92
2023-01-11T06:44:02.245Z,9.91
2023-01-11T06:46:29.345Z,9.89
2023-01-11T06:48:57.095Z,9.89
2023-01-11T06:51:23.782Z,9.86
2023-01-11T06:53:52.799Z,9.82
2023-01-11T06:56:19.308Z,9.79
2023-01-11T06:58:52.512Z,9.76
2023-01-11T07:01:19.927Z,9.73
2023-01-11T07:03:46.800Z,9.72
2023-01-11T07:06:14.800Z,9.68
2023-01-11T07:08:42.681Z,9.68
2023-01-11T07:11:14.239Z,9.66
2023-01-11T07:13:41.193Z,9.64
2023-01-11T07:16:11.644Z,9.62
2023-01-11T07:18:40.010Z,9.59
2023-01-11T07:21:07.292Z,9.55
2023-01-11T07:23:34.294Z,9.53
2023-01-11T07:26:03.983Z,9.50
2023-01-11T07:28:30.915Z,9.51
2023-01-11T07:30:59.928Z,9.50
2023-01-11T07:33:28.264Z,9.45
2023-01-11T07:35:55.162Z,9.45
2023-01-11T07:38:22.285Z,9.42
2023-01-11T07:40:49.320Z,9.36
2023-01-11T07:43:16.466Z,9.32
2023-01-11T07:45:49.589Z,9.26
2023-01-11T07:48:25.160Z,9.20
2023-01-11T07:50:53.040Z,9.15
2023-01-11T07:53:20.215Z,9.11
2023-01-11T07:55:47.281Z,9.03
2023-01-11T07:58:15.942Z,9.00
2023-01-11T08:00:46.837Z,8.95
2023-01-11T08:03:14.317Z,8.94
2023-01-11T08:05:41.224Z,8.91
2023-01-11T08:08:12.553Z,8.92
2023-01-11T08:10:44.419Z,8.92
2023-01-11T08:13:32.096Z,8.94
2023-01-11T08:16:00.907Z,8.88
2023-01-11T08:18:27.553Z,8.85
2023-01-11T08:20:54.603Z,8.80
2023-01-11T08:23:21.432Z,8.75
2023-01-11T08:25:50.438Z,8.72
2023-01-11T08:28:17.822Z,8.68
2023-01-11T08:30:45.096Z,8.66
2023-01-11T08:33:17.826Z,8.62
2023-01-11T08:35:44.624Z,8.59
2023-01-11T08:38:11.406Z,8.55
2023-01-11T08:40:39.162Z,8.56
2023-01-11T08:43:07.346Z,8.55
2023-01-11T08:45:34.735Z,8.53
2023-01-11T08:48:01.611Z,8.51
2023-01-11T08:50:28.400Z,8.49
2023-01-11T08:52:55.100Z,8.48
2023-01-11T08:55:23.520Z,8.45
2023-01-11T08:57:53.613Z,8.46
2023-01-11T09:00:23.134Z,8.48
2023-01-11T09:02:50.178Z,8.55
2023-01-11T09:05:18.353Z,8.66
2023-01-11T09:07:46.816Z,8.73
2023-01-11T09:10:13.642Z,8.66
2023-01-11T09:12:40.433Z,8.61
2023-01-11T09:15:07.445Z,8.59
2023-01-11T09:17:34.520Z,8.55
2023-01-11T09:20:02.201Z,8.49
2023-01-11T09:22:28.972Z,8.49
2023-01-11T09:25:00.380Z,8.57
2023-01-11T09:27:27.657Z,8.74
2023-01-11T09:30:01.498Z,9.30
2023-01-11T09:32:33.560Z,10.20
2023-01-11T09:35:18.246Z,11.18
2023-01-11T09:37:54.209Z,11.70
2023-01-11T09:40:24.456Z,12.50
2023-01-11T09:42:57.331Z,12.80
2023-01-11T09:45:31.253Z,12.98
2023-01-11T09:48:11.889Z,12.72
2023-01-11T09:50:45.697Z,12.74
2023-01-11T09:53:32.205Z,12.20
2023-01-11T09:56:02.511Z,12.16
2023-01-11T09:58:51.237Z,12.54
2023-01-11T10:01:20.227Z,12.17
2023-01-11T10:03:58.458Z,12.56
2023-01-11T10:06:33.864Z,12.96
2023-01-11T10:18:32.235Z,12.29
2023-01-11T10:19:18.611Z,11.46
2023-01-11T10:21:36.107Z,11.11
2023-01-11T10:24:12.162Z,10.91
2023-01-11T10:26:42.097Z,11.29
2023-01-11T10:30:00.977Z,11.93
2023-01-11T10:32:50.173Z,12.47
2023-01-11T10:36:03.537Z,12.52
2023-01-11T10:38:41.070Z,12.27
2023-01-11T10:41:22.141Z,11.89
2023-01-11T10:44:00.369Z,11.71
2023-01-11T10:46:29.908Z,11.61
2023-01-11T10:49:11.804Z,11.61
2023-01-11T10:51:45.081Z,11.95
2023-01-11T10:54:24.775Z,12.58
2023-01-11T10:57:04.727Z,12.47
2023-01-11T10:59:51.014Z,12.68
2023-01-11T11:02:46.770Z,12.35
2023-01-11T11:05:33.580Z,12.07
2023-01-11T11:08:06.435Z,11.75
2023-01-11T11:11:01.397Z,11.77
2023-01-11T11:13:54.904Z,11.86
2023-01-11T11:16:24.419Z,11.90
2023-01-11T11:18:53.365Z,12.06
2023-01-11T11:21:28.636Z,12.25
2023-01-11T11:24:19.794Z,11.83
2023-01-11T11:26:54.069Z,11.56
2023-01-11T11:29:23.410Z,11.55
2023-01-11T11:31:51.429Z,11.62
2023-01-11T11:34:21.049Z,11.56
2023-01-11T11:36:53.456Z,11.66
2023-01-11T11:39:30.087Z,11.27
2023-01-11T11:42:07.289Z,11.01
2023-01-11T11:44:36.017Z,10.64
2023-01-11T11:47:08.035Z,10.47
2023-01-11T11:49:36.891Z,10.36
2023-01-11T11:52:06.721Z,10.32
2023-01-11T11:54:37.401Z,10.30
2023-01-11T11:57:23.876Z,10.17
2023-01-11T12:00:14.276Z,10.08
2023-01-11T12:02:49.460Z,10.01
2023-01-11T12:05:23.677Z,9.96
2023-01-11T12:07:55.486Z,9.88
2023-01-11T12:10:30.316Z,9.80
2023-01-11T12:13:02.924Z,9.75
2023-01-11T12:15:35.950Z,9.73
2023-01-11T12:18:28.139Z,9.77
2023-01-11T12:20:55.595Z,9.96
2023-01-11T12:23:26.013Z,9.88
2023-01-11T12:26:18.120Z,9.81
2023-01-11T12:29:15.185Z,9.85
2023-01-11T12:32:02.686Z,9.86
2023-01-11T12:34:36.782Z,9.79
2023-01-11T12:37:34.325Z,9.83
2023-01-11T12:40:19.077Z,10.03
2023-01-11T12:43:04.874Z,10.12
2023-01-11T12:45:55.861Z,10.23
2023-01-11T12:49:03.897Z,10.14
2023-01-11T12:51:53.567Z,10.02
2023-01-11T12:54:39.096Z,9.94
2023-01-11T12:57:32.483Z,9.95
2023-01-11T12:59:59.811Z,9.91
2023-01-11T13:02:42.012Z,9.94
2023-01-11T13:05:48.878Z,9.93
2023-01-11T13:08:33.796Z,9.86
2023-01-11T13:11:38.213Z,9.86
2023-01-11T13:14:27.689Z,9.97
2023-01-11T13:17:16.397Z,9.97
2023-01-11T13:19:49.028Z,10.06
2023-01-11T13:22:23.358Z,10.07
2023-01-11T13:24:51.630Z,9.92
2023-01-11T13:27:24.699Z,9.85
2023-01-11T13:29:58.579Z,9.80
2023-01-11T13:32:32.624Z,9.81
2023-01-11T13:35:09.531Z,9.90
2023-01-11T13:38:05.361Z,9.98
2023-01-11T13:40:38.748Z,10.20
2023-01-11T13:43:11.473Z,10.43
2023-01-11T13:45:49.001Z,10.56
2023-01-11T13:48:25.030Z,10.63
2023-01-11T13:51:20.715Z,10.65
2023-01-11T13:53:59.322Z,10.64
2023-01-11T13:56:31.894Z,10.62
2023-01-11T13:59:15.010Z,10.66
2023-01-11T14:02:12.827Z,10.56
2023-01-11T14:04:50.454Z,10.41
2023-01-11T14:07:17.423Z,10.24
2023-01-11T14:09:52.068Z,10.07
2023-01-11T14:12:21.569Z,9.98
2023-01-11T14:15:22.534Z,9.93
2023-01-11T14:17:51.980Z,9.88
2023-01-11T14:20:30.758Z,9.82
2023-01-11T14:23:12.378Z,9.76
2023-01-11T14:26:09.318Z,9.71
2023-01-11T14:28:51.483Z,9.67
2023-01-11T14:31:33.667Z,9.68
2023-01-11T14:34:19.500Z,9.72
2023-01-11T14:36:53.692Z,9.75
2023-01-11T14:39:57.963Z,9.68
2023-01-11T14:42:32.034Z,9.60
2023-01-11T14:45:20.205Z,9.52
2023-01-11T14:47:52.771Z,9.44
2023-01-11T14:50:41.336Z,9.37
2023-01-11T14:53:13.227Z,9.27
2023-01-11T14:55:48.251Z,9.20
2023-01-11T14:58:34.038Z,9.19
2023-01-11T15:01:00.573Z,9.16
2023-01-11T15:03:42.365Z,9.12
2023-01-11T15:06:14.228Z,9.05
2023-01-11T15:08:45.636Z,8.99
2023-01-11T15:11:21.315Z,8.92
2023-01-11T15:13:59.024Z,8.90
2023-01-11T15:16:46.347Z,8.85
2023-01-11T15:19:24.015Z,8.85
2023-01-11T15:21:53.686Z,8.86
2023-01-11T15:24:44.093Z,8.84
2023-01-11T15:27:38.999Z,8.82
2023-01-11T15:30:27.667Z,8.77
2023-01-11T15:32:54.597Z,8.81
2023-01-11T15:35:27.252Z,8.82
2023-01-11T15:38:18.922Z,8.81
2023-01-11T15:40:47.648Z,8.81
2023-01-11T15:43:39.031Z,8.80
2023-01-11T15:46:55.943Z,8.69
2023-01-11T15:49:41.003Z,8.64
2023-01-11T15:52:50.738Z,8.63
2023-01-11T15:55:42.991Z,8.60
2023-01-11T15:58:47.547Z,8.60
2023-01-11T16:01:17.369Z,8.64
2023-01-11T16:04:17.838Z,8.62
2023-01-11T16:07:20.975Z,8.57
2023-01-11T16:09:57.724Z,8.58
2023-01-11T16:12:57.214Z,8.59
2023-01-11T16:15:53.739Z,8.68
2023-01-11T16:18:27.587Z,8.72
2023-01-11T16:21:13.267Z,8.78
2023-01-11T16:23:41.405Z,8.75
2023-01-11T16:26:08.652Z,8.70
2023-01-11T16:28:35.696Z,8.61
2023-01-11T16:31:05.401Z,8.59
2023-01-11T16:33:36.197Z,8.56
2023-01-11T16:36:05.576Z,8.50
2023-01-11T16:38:42.720Z,8.52
2023-01-11T16:41:14.653Z,8.52
2023-01-11T16:43:51.263Z,8.51
2023-01-11T16:46:35.893Z,8.50
2023-01-11T16:49:21.272Z,8.42
2023-01-11T16:51:49.418Z,8.36
2023-01-11T16:54:27.888Z,8.35
2023-01-11T16:56:56.782Z,8.38
2023-01-11T16:59:34.877Z,8.40
2023-01-11T17:02:04.856Z,8.42
2023-01-11T17:04:37.272Z,8.44
2023-01-11T17:07:25.591Z,8.44
2023-01-11T17:09:54.948Z,8.45
2023-01-11T17:12:27.720Z,8.46
2023-01-11T17:15:19.827Z,8.51
2023-01-11T17:17:47.027Z,8.47
2023-01-11T17:20:23.907Z,8.46
2023-01-11T17:22:54.164Z,8.43
2023-01-11T17:25:44.126Z,8.48
2023-01-11T17:28:18.102Z,8.54
2023-01-11T17:30:47.157Z,8.57
2023-01-11T17:33:29.392Z,8.61
2023-01-11T17:36:00.228Z,8.64
2023-01-11T17:38:31.788Z,8.66
2023-01-11T17:41:01.463Z,8.65
2023-01-11T17:43:48.445Z,8.63
2023-01-11T17:46:21.895Z,8.61
2023-01-11T17:48:57.234Z,8.62
2023-01-11T17:51:34.738Z,8.61
2023-01-11T17:54:02.208Z,8.66
2023-01-11T17:56:41.749Z,8.62
2023-01-11T17:59:11.869Z,8.61
2023-01-11T18:01:38.790Z,8.60
2023-01-11T18:04:06.176Z,8.66
2023-01-11T18:06:42.746Z,8.73
2023-01-11T18:09:21.218Z,8.72
2023-01-11T18:11:48.121Z,8.73
2023-01-11T18:14:27.705Z,8.77
2023-01-11T18:17:08.025Z,8.82
2023-01-11T18:19:46.984Z,8.85
2023-01-11T18:22:41.008Z,8.89
2023-01-11T18:25:21.822Z,8.91
2023-01-11T18:27:51.603Z,8.96
2023-01-11T18:30:30.906Z,8.89
2023-01-11T18:32:59.789Z,8.79
2023-01-11T18:35:28.259Z,8.68
2023-01-11T18:37:58.150Z,8.61
2023-01-11T18:40:24.753Z,8.57
2023-01-11T18:42:54.035Z,8.54
2023-01-11T18:45:25.174Z,8.51
2023-01-11T18:47:52.693Z,8.47
2023-01-11T18:50:21.151Z,8.40
2023-01-11T18:52:52.463Z,8.34
2023-01-11T18:55:19.122Z,8.29
2023-01-11T18:57:47.428Z,8.31
2023-01-11T19:00:16.800Z,8.30
2023-01-11T19:02:44.507Z,8.29
2023-01-11T19:05:14.426Z,8.31
2023-01-11T19:07:41.187Z,8.31
2023-01-11T19:10:08.389Z,8.30
2023-01-11T19:12:36.995Z,8.32
2023-01-11T19:15:07.800Z,8.36
2023-01-11T19:17:35.004Z,8.36
2023-01-11T19:20:02.286Z,8.35
2023-01-11T19:22:29.345Z,8.33
2023-01-11T19:24:56.267Z,8.30
2023-01-11T19:27:30.705Z,8.24
2023-01-11T19:29:59.084Z,8.21
2023-01-11T19:32:28.703Z,8.24
2023-01-11T19:34:58.449Z,8.25
2023-01-11T19:37:28.547Z,8.21
2023-01-11T19:39:57.526Z,8.15
2023-01-11T19:42:27.343Z,8.13
2023-01-11T19:44:55.187Z,8.10
2023-01-11T19:47:25.680Z,8.08
2023-01-11T19:49:57.756Z,8.06
2023-01-11T19:52:24.897Z,8.03
2023-01-11T19:54:52.169Z,7.98
2023-01-11T19:57:23.338Z,7.94
2023-01-11T19:59:53.355Z,7.93
2023-01-11T20:02:23.255Z,7.84
2023-01-11T20:04:51.447Z,7.77
2023-01-11T20:07:18.405Z,7.72
2023-01-11T20:09:46.657Z,7.71
2023-01-11T20:12:15.826Z,7.71
2023-01-11T20:14:44.735Z,7.65
2023-01-11T20:17:11.436Z,7.60
2023-01-11T20:19:46.200Z,7.61
2023-01-11T20:22:12.904Z,7.61
2023-01-11T20:24:39.812Z,7.60
2023-01-11T20:27:07.694Z,7.59
2023-01-11T20:29:36.650Z,7.66
2023-01-11T20:32:27.627Z,7.73
2023-01-11T20:34:53.908Z,7.71
2023-01-11T20:37:20.943Z,7.68
2023-01-11T20:39:50.409Z,7.67
2023-01-11T20:42:19.449Z,7.67
2023-01-11T20:44:46.001Z,7.62
2023-01-11T20:47:16.808Z,7.65
2023-01-11T20:49:43.486Z,7.64
2023-01-11T20:52:10.115Z,7.65
2023-01-11T20:54:37.834Z,7.68
2023-01-11T20:57:12.844Z,7.65
2023-01-11T20:59:40.780Z,7.69
2023-01-11T21:02:07.808Z,7.66
2023-01-11T21:04:36.231Z,7.69
2023-01-11T21:07:04.251Z,7.70
2023-01-11T21:09:38.074Z,7.69
2023-01-11T21:12:07.298Z,7.68
2023-01-11T21:14:34.867Z,7.67
2023-01-11T21:17:02.866Z,7.69
2023-01-11T21:19:30.198Z,7.69
2023-01-11T21:21:58.160Z,7.68
2023-01-11T21:24:26.666Z,7.67
2023-01-11T21:26:53.862Z,7.64
2023-01-11T21:29:20.658Z,7.63
2023-01-11T21:31:47.438Z,7.64
2023-01-11T21:34:16.572Z,7.67
2023-01-11T21:36:44.815Z,7.67
2023-01-11T21:39:13.265Z,7.69
2023-01-11T21:41:58.406Z,7.70
2023-01-11T21:44:34.713Z,7.71
2023-01-11T21:47:03.615Z,7.74
2023-01-11T21:49:31.695Z,7.77
2023-01-11T21:51:59.665Z,7.80
2023-01-11T21:54:27.283Z,7.81
2023-01-11T21:56:53.906Z,7.83
2023-01-11T21:59:23.739Z,7.84
2023-01-11T22:01:50.946Z,7.88
2023-01-11T22:04:20.432Z,7.90
2023-01-11T22:06:51.660Z,7.94
2023-01-11T22:09:20.059Z,7.98
2023-01-11T22:11:51.280Z,8.04
2023-01-11T22:14:19.729Z,8.10
2023-01-11T22:16:46.404Z,8.17
2023-01-11T22:19:14.317Z,8.23
2023-01-11T22:21:42.075Z,8.26
2023-01-11T22:24:13.169Z,8.28
2023-01-11T22:26:40.637Z,8.30
2023-01-11T22:29:17.594Z,8.30
2023-01-11T22:32:01.126Z,8.28
2023-01-11T22:34:28.836Z,8.28
2023-01-11T22:36:56.575Z,8.30
2023-01-11T22:39:24.819Z,8.28
2023-01-11T22:41:51.923Z,8.28
2023-01-11T22:44:19.482Z,8.31
2023-01-11T22:46:47.064Z,8.33
2023-01-11T22:49:14.110Z,8.29
2023-01-11T22:51:44.613Z,8.28
2023-01-11T22:54:11.699Z,8.25
2023-01-11T22:56:42.630Z,8.26
2023-01-11T22:59:10.365Z,8.24
2023-01-11T23:01:39.913Z,8.28
2023-01-11T23:04:11.659Z,8.32
2023-01-11T23:06:40.368Z,8.33
2023-01-11T23:09:17.411Z,8.36
2023-01-11T23:12:03.404Z,8.37
2023-01-11T23:14:33.612Z,8.40
2023-01-11T23:17:24.711Z,8.41
2023-01-11T23:19:52.648Z,8.40
2023-01-11T23:22:19.589Z,8.39
2023-01-11T23:24:59.849Z,8.39
2023-01-11T23:27:30.308Z,8.42
2023-01-11T23:29:57.354Z,8.42
2023-01-11T23:32:26.306Z,8.39
2023-01-11T23:34:52.830Z,8.40
2023-01-11T23:37:19.597Z,8.39
2023-01-11T23:39:51.421Z,8.40
2023-01-11T23:42:27.465Z,8.40
2023-01-11T23:44:55.524Z,8.41
2023-01-11T23:47:24.979Z,8.43
2023-01-11T23:49:58.067Z,8.45
2023-01-11T23:52:28.073Z,8.48
2023-01-11T23:54:55.595Z,8.48
2023-01-11T23:57:23.174Z,8.51
2023-01-11T23:59:50.207Z,8.54
